Time;durP1;ratioP1;P1;durP2;ratioP2;P2;SDS_P1;SDS_P2;PMS_P1;PMS_P2;Temp;Humidity;BMP_temperature;BMP_pressure;BME280_temperature;BME280_humidity;BME280_pressure;Samples;Min_cycle;Max_cycle;Signal;HPM_P1;HPM_P2
2022/05/19 00:01:21;;;;;;;4.07;3.17;;;;;;;;;;5006482;28;20514;-68
2022/05/19 00:03:47;;;;;;;10.45;3.67;;;;;;;;;;5022290;28;20069;-68
2022/05/19 00:06:13;;;;;;;5.15;3.17;;;;;;;;;;5008555;28;20046;-68
2022/05/19 00:08:38;;;;;;;4.53;3.03;;;;;;;;;;5008875;28;20033;-68
2022/05/19 00:11:11;;;;;;;5.72;3.45;;;;;;;;;;5007978;28;20159;-68
2022/05/19 00:13:37;;;;;;;;;;;;;;;;;;5005770;28;20066;-68
2022/05/19 00:16:03;;;;;;;5.78;3.60;;;;;;;;;;5003925;28;19991;-68
2022/05/19 00:18:29;;;;;;;5.90;3.78;;;;;;;;;;5001350;28;20049;-68
2022/05/19 00:20:54;;;;;;;6.45;3.80;;;;;;;;;;5007377;28;20176;-68
2022/05/19 00:23:19;;;;;;;6.60;4.00;;;;;;;;;;5014317;28;20079;-68
2022/05/19 00:25:45;;;;;;;5.20;3.55;;;;;;;;;;5004772;28;20057;-68
2022/05/19 00:28:11;;;;;;;9.68;3.95;;;;;;;;;;5008674;28;20054;-68
2022/05/19 00:30:37;;;;;;;5.45;3.90;;;;;;;;;;5008713;28;20038;-68
2022/05/19 00:33:03;;;;;;;6.55;3.92;;;;;;;;;;5006112;28;20048;-68
2022/05/19 00:35:29;;;;;;;7.38;3.63;;;;;;;;;;5008611;28;20168;-68
2022/05/19 00:37:54;;;;;;;8.18;4.00;;;;;;;;;;5008933;28;20022;-68
2022/05/19 00:40:22;;;;;;;5.47;4.18;;;;;;;;;;5008037;28;20034;-68
2022/05/19 00:42:47;;;;;;;7.55;4.45;;;;;;;;;;5008522;28;20037;-68
2022/05/19 00:45:16;;;;;;;10.32;4.50;;;;;;;;;;5008147;28;20038;-68
2022/05/19 00:47:46;;;;;;;5.60;4.15;;;;;;;;;;5007471;28;20026;-68
2022/05/19 00:50:28;;;;;;;5.72;3.95;;;;;;;;;;5006483;28;20097;-68
2022/05/19 00:53:00;;;;;;;11.48;4.47;;;;;;;;;;4996747;28;20069;-68
2022/05/19 00:55:34;;;;;;;7.93;4.28;;;;;;;;;;5022870;28;20096;-68
2022/05/19 00:58:06;;;;;;;5.72;4.30;;;;;;;;;;5008201;28;20084;-68
2022/05/19 01:00:32;;;;;;;8.60;4.63;;;;;;;;;;5008100;28;20088;-68
2022/05/19 01:02:59;;;;;;;7.63;4.57;;;;;;;;;;5008014;28;20061;-68
2022/05/19 01:05:43;;;;;;;9.35;4.78;;;;;;;;;;5006911;28;20018;-68
2022/05/19 01:08:20;;;;;;;8.50;4.93;;;;;;;;;;5003320;28;20099;-68
2022/05/19 01:10:48;;;;;;;9.35;4.57;;;;;;;;;;4994506;28;20037;-68
2022/05/19 01:13:14;;;;;;;11.95;5.13;;;;;;;;;;5006776;28;20447;-68
2022/05/19 01:15:44;;;;;;;8.07;5.05;;;;;;;;;;5007587;28;20038;-68
2022/05/19 01:18:11;;;;;;;8.45;5.20;;;;;;;;;;5007785;28;20042;-68
2022/05/19 01:20:38;;;;;;;10.48;5.38;;;;;;;;;;5007279;28;20021;-68
2022/05/19 01:23:28;;;;;;;9.65;4.57;;;;;;;;;;5020919;28;20116;-68
2022/05/19 01:26:08;;;;;;;7.05;5.07;;;;;;;;;;5003735;28;20119;-68
2022/05/19 01:28:34;;;;;;;10.80;5.13;;;;;;;;;;5007312;28;20523;-68
2022/05/19 01:30:59;;;;;;;6.65;3.90;;;;;;;;;;5006836;28;20064;-68
2022/05/19 01:33:25;;;;;;;15.77;4.32;;;;;;;;;;5006597;28;20054;-68
2022/05/19 01:35:51;;;;;;;4.57;3.30;;;;;;;;;;5007127;28;20130;-68
2022/05/19 01:38:30;;;;;;;7.72;4.43;;;;;;;;;;5005739;28;20061;-68
2022/05/19 01:41:01;;;;;;;10.73;4.47;;;;;;;;;;4994191;28;20058;-68
2022/05/19 01:43:54;;;;;;;5.97;4.13;;;;;;;;;;4988202;28;20069;-68
2022/05/19 01:46:30;;;;;;;7.22;3.60;;;;;;;;;;5019416;28;20025;-68
2022/05/19 01:49:16;;;;;;;6.47;3.60;;;;;;;;;;5007627;28;20549;-68
2022/05/19 01:51:58;;;;;;;7.07;3.90;;;;;;;;;;5007913;28;20033;-68
2022/05/19 01:54:56;;;;;;;5.65;3.95;;;;;;;;;;5007902;28;20549;-68
2022/05/19 01:57:27;;;;;;;9.70;4.60;;;;;;;;;;5005547;28;20471;-68
2022/05/19 02:00:01;;;;;;;8.75;4.00;;;;;;;;;;5005398;28;20574;-68
2022/05/19 02:02:52;;;;;;;6.63;4.10;;;;;;;;;;5005530;28;20061;-68
2022/05/19 02:05:56;;;;;;;5.22;3.90;;;;;;;;;;4987880;28;20405;-68
2022/05/19 02:08:48;;;;;;;8.60;4.07;;;;;;;;;;4996739;28;20056;-68
2022/05/19 02:11:20;;;;;;;10.20;4.30;;;;;;;;;;5004945;28;20721;-69
2022/05/19 02:13:48;;;;;;;8.25;4.70;;;;;;;;;;5001476;28;20034;-69
2022/05/19 02:16:15;;;;;;;16.35;5.70;;;;;;;;;;4985611;28;20097;-69
2022/05/19 02:18:42;;;;;;;16.35;5.88;;;;;;;;;;5008892;28;20040;-70
2022/05/19 02:21:08;;;;;;;12.48;5.80;;;;;;;;;;5005507;28;20116;-69
2022/05/19 02:23:35;;;;;;;14.30;6.88;;;;;;;;;;4989720;28;20018;-70
2022/05/19 02:26:00;;;;;;;16.42;6.45;;;;;;;;;;4992853;28;20522;-70
2022/05/19 02:28:51;;;;;;;11.20;6.93;;;;;;;;;;5004998;28;20046;-70
2022/05/19 02:31:17;;;;;;;12.15;6.97;;;;;;;;;;5020736;28;20049;-70
2022/05/19 02:33:42;;;;;;;12.52;6.40;;;;;;;;;;4997617;28;20400;-70
2022/05/19 02:36:09;;;;;;;12.52;6.60;;;;;;;;;;5020595;28;20038;-70
2022/05/19 02:38:35;;;;;;;11.82;6.43;;;;;;;;;;5005109;28;20044;-70
2022/05/19 02:41:00;;;;;;;14.07;7.15;;;;;;;;;;5004884;28;20034;-70
2022/05/19 02:43:26;;;;;;;13.00;6.97;;;;;;;;;;5008239;28;20088;-70
2022/05/19 02:45:51;;;;;;;14.05;7.00;;;;;;;;;;5010284;28;20315;-70
2022/05/19 02:48:18;;;;;;;9.93;6.05;;;;;;;;;;5004287;28;20038;-70
2022/05/19 02:50:45;;;;;;;9.63;6.40;;;;;;;;;;4992116;28;20018;-70
2022/05/19 02:53:10;;;;;;;10.10;5.63;;;;;;;;;;4992528;28;20026;-70
2022/05/19 02:55:37;;;;;;;9.45;5.78;;;;;;;;;;4994576;28;20052;-69
2022/05/19 02:58:02;;;;;;;10.30;5.65;;;;;;;;;;4990732;28;20096;-69
2022/05/19 03:00:28;;;;;;;11.80;5.85;;;;;;;;;;5003422;28;20050;-69
2022/05/19 03:02:54;;;;;;;16.40;4.75;;;;;;;;;;5011077;28;20057;-69
2022/05/19 03:05:23;;;;;;;7.43;5.22;;;;;;;;;;5001053;28;20034;-69
2022/05/19 03:07:49;;;;;;;9.65;6.20;;;;;;;;;;4991736;28;20042;-70
2022/05/19 03:10:15;;;;;;;11.43;6.43;;;;;;;;;;5011951;28;20470;-70
2022/05/19 03:12:41;;;;;;;9.65;6.20;;;;;;;;;;5011536;28;20046;-70
2022/05/19 03:15:08;;;;;;;9.23;5.78;;;;;;;;;;5011901;28;20044;-69
2022/05/19 03:17:34;;;;;;;9.07;6.07;;;;;;;;;;5011170;28;20574;-70
2022/05/19 03:19:59;;;;;;;10.48;6.35;;;;;;;;;;4994548;28;20030;-70
2022/05/19 03:22:25;;;;;;;13.05;7.05;;;;;;;;;;4997598;28;20045;-70
2022/05/19 03:24:51;;;;;;;9.88;6.28;;;;;;;;;;5010294;28;20049;-70
2022/05/19 03:27:17;;;;;;;12.02;6.22;;;;;;;;;;4994583;28;20995;-70
2022/05/19 03:29:42;;;;;;;9.75;6.00;;;;;;;;;;4993942;28;20050;-70
2022/05/19 03:32:07;;;;;;;10.40;7.00;;;;;;;;;;5012280;28;20042;-70
2022/05/19 03:34:33;;;;;;;9.00;5.82;;;;;;;;;;5010023;28;20038;-69
2022/05/19 03:37:02;;;;;;;7.13;5.53;;;;;;;;;;5011570;28;20053;-70
2022/05/19 03:39:27;;;;;;;7.80;5.82;;;;;;;;;;5007701;28;20037;-70
2022/05/19 03:41:53;;;;;;;11.25;6.40;;;;;;;;;;4992410;28;20042;-70
2022/05/19 03:44:18;;;;;;;10.10;6.28;;;;;;;;;;4993004;28;20038;-70
2022/05/19 03:46:43;;;;;;;9.65;6.05;;;;;;;;;;4993074;28;20046;-70
2022/05/19 03:49:09;;;;;;;10.35;5.97;;;;;;;;;;4992606;28;20034;-70
2022/05/19 03:51:35;;;;;;;10.00;6.28;;;;;;;;;;4992935;28;20511;-70
2022/05/19 03:54:01;;;;;;;9.55;6.00;;;;;;;;;;4994047;28;20551;-69
2022/05/19 03:56:26;;;;;;;11.00;6.20;;;;;;;;;;5007951;28;20057;-69
2022/05/19 03:58:52;;;;;;;8.48;5.65;;;;;;;;;;4991412;28;20046;-70
2022/05/19 04:01:20;;;;;;;11.23;6.53;;;;;;;;;;5004827;28;20045;-70
2022/05/19 04:03:46;;;;;;;10.95;6.22;;;;;;;;;;5009119;28;20539;-70
2022/05/19 04:06:11;;;;;;;8.32;5.85;;;;;;;;;;5009317;28;20042;-69
2022/05/19 04:08:37;;;;;;;9.48;6.43;;;;;;;;;;5007949;28;20063;-69
2022/05/19 04:11:03;;;;;;;9.52;6.65;;;;;;;;;;5009800;28;20084;-69
2022/05/19 04:13:29;;;;;;;9.15;6.43;;;;;;;;;;5009022;28;20037;-69
2022/05/19 04:15:54;;;;;;;11.32;6.50;;;;;;;;;;5007842;28;20077;-69
2022/05/19 04:18:20;;;;;;;10.32;6.20;;;;;;;;;;5009189;28;20110;-69
2022/05/19 04:20:45;;;;;;;9.20;5.82;;;;;;;;;;5008720;28;20034;-69
2022/05/19 04:23:11;;;;;;;9.13;6.38;;;;;;;;;;5009038;28;20045;-69
2022/05/19 04:25:37;;;;;;;8.25;6.15;;;;;;;;;;5004641;28;20064;-70
2022/05/19 04:28:03;;;;;;;11.38;6.68;;;;;;;;;;5009024;28;20050;-69
2022/05/19 04:30:28;;;;;;;10.55;6.85;;;;;;;;;;5008609;28;20041;-69
2022/05/19 04:32:54;;;;;;;10.90;6.80;;;;;;;;;;4989895;28;20054;-69
2022/05/19 04:35:20;;;;;;;8.75;6.28;;;;;;;;;;4989690;28;20064;-69
2022/05/19 04:37:46;;;;;;;10.63;6.43;;;;;;;;;;4999686;28;20042;-70
2022/05/19 04:40:13;;;;;;;10.10;6.45;;;;;;;;;;5008442;28;20037;-69
2022/05/19 04:42:39;;;;;;;9.50;7.05;;;;;;;;;;5007218;28;20034;-69
2022/05/19 04:45:06;;;;;;;11.32;6.45;;;;;;;;;;5008573;28;20088;-69
2022/05/19 04:47:31;;;;;;;11.50;6.60;;;;;;;;;;5006016;28;20499;-69
2022/05/19 04:49:56;;;;;;;13.63;6.93;;;;;;;;;;5009032;28;20044;-69
2022/05/19 04:52:22;;;;;;;10.30;7.30;;;;;;;;;;5007887;28;20062;-69
2022/05/19 04:54:48;;;;;;;9.95;7.03;;;;;;;;;;5008551;28;20205;-70
2022/05/19 04:57:13;;;;;;;10.15;6.70;;;;;;;;;;5008431;28;20042;-69
2022/05/19 04:59:40;;;;;;;10.52;7.20;;;;;;;;;;5006435;28;20126;-69
2022/05/19 05:02:06;;;;;;;9.60;6.82;;;;;;;;;;4988739;28;20765;-69
2022/05/19 05:04:31;;;;;;;9.35;6.22;;;;;;;;;;4988568;28;20555;-69
2022/05/19 05:06:57;;;;;;;9.35;5.82;;;;;;;;;;4988454;28;20069;-70
2022/05/19 05:09:23;;;;;;;9.45;6.05;;;;;;;;;;4988520;28;20042;-70
2022/05/19 05:11:48;;;;;;;9.82;6.32;;;;;;;;;;4991603;28;20038;-69
2022/05/19 05:14:16;;;;;;;12.43;6.03;;;;;;;;;;4988754;28;20121;-69
2022/05/19 05:16:42;;;;;;;10.93;6.30;;;;;;;;;;4986692;28;20042;-69
2022/05/19 05:19:08;;;;;;;7.60;5.55;;;;;;;;;;4999389;28;20038;-69
2022/05/19 05:21:33;;;;;;;9.20;6.03;;;;;;;;;;5007831;28;20440;-69
2022/05/19 05:23:58;;;;;;;11.88;6.13;;;;;;;;;;5007923;28;20111;-69
2022/05/19 05:26:23;;;;;;;10.75;6.20;;;;;;;;;;5003171;28;20053;-69
2022/05/19 05:28:49;;;;;;;7.80;5.75;;;;;;;;;;5007479;28;20061;-69
2022/05/19 05:31:14;;;;;;;9.15;5.20;;;;;;;;;;5006253;28;20423;-69
2022/05/19 05:33:40;;;;;;;8.10;5.38;;;;;;;;;;5007686;28;20041;-69
2022/05/19 05:36:05;;;;;;;8.23;5.82;;;;;;;;;;4992448;28;20451;-69
2022/05/19 05:38:31;;;;;;;9.90;6.10;;;;;;;;;;5004737;28;20041;-69
2022/05/19 05:40:56;;;;;;;12.13;6.20;;;;;;;;;;5006327;28;20123;-69
2022/05/19 05:43:22;;;;;;;10.45;6.70;;;;;;;;;;5007792;28;20038;-69
2022/05/19 05:45:49;;;;;;;10.43;6.80;;;;;;;;;;5007157;28;20099;-69
2022/05/19 05:48:15;;;;;;;10.95;5.85;;;;;;;;;;5001443;28;20033;-69
2022/05/19 05:50:40;;;;;;;8.90;5.72;;;;;;;;;;5007444;28;20022;-69
2022/05/19 05:53:07;;;;;;;13.60;6.20;;;;;;;;;;5007339;28;20026;-69
2022/05/19 05:55:33;;;;;;;11.48;6.20;;;;;;;;;;5007020;28;20052;-69
2022/05/19 05:57:59;;;;;;;9.93;6.55;;;;;;;;;;5007123;28;20423;-69
2022/05/19 06:00:25;;;;;;;10.68;6.53;;;;;;;;;;5007094;28;20119;-69
2022/05/19 06:02:50;;;;;;;13.82;6.57;;;;;;;;;;5006821;28;20176;-69
2022/05/19 06:05:18;;;;;;;11.80;6.22;;;;;;;;;;5007822;28;20583;-69
2022/05/19 06:07:44;;;;;;;12.13;6.53;;;;;;;;;;4996545;28;20141;-69
2022/05/19 06:10:11;;;;;;;18.65;7.78;;;;;;;;;;4998583;28;20038;-69
2022/05/19 06:12:37;;;;;;;10.07;6.65;;;;;;;;;;5007158;28;20034;-69
2022/05/19 06:15:02;;;;;;;8.48;5.85;;;;;;;;;;5022438;28;20510;-69
2022/05/19 06:17:28;;;;;;;10.07;5.88;;;;;;;;;;5007135;28;20061;-69
2022/05/19 06:19:53;;;;;;;11.25;6.38;;;;;;;;;;5003223;28;20088;-69
2022/05/19 06:22:21;;;;;;;8.30;6.13;;;;;;;;;;5007299;28;20030;-69
2022/05/19 06:24:47;;;;;;;11.98;6.22;;;;;;;;;;4998901;28;20038;-69
2022/05/19 06:27:12;;;;;;;12.48;6.40;;;;;;;;;;5006748;28;20919;-69
2022/05/19 06:29:37;;;;;;;9.63;6.30;;;;;;;;;;5005225;28;20033;-69
2022/05/19 06:32:03;;;;;;;12.68;7.03;;;;;;;;;;5007221;28;20026;-69
2022/05/19 06:34:28;;;;;;;12.55;6.70;;;;;;;;;;4987320;28;20042;-68
2022/05/19 06:36:56;;;;;;;10.73;6.57;;;;;;;;;;5005959;28;20061;-69
2022/05/19 06:39:21;;;;;;;10.95;6.43;;;;;;;;;;5003852;28;20554;-69
2022/05/19 06:42:01;;;;;;;8.52;5.93;;;;;;;;;;5002798;28;20037;-69
2022/05/19 06:44:29;;;;;;;7.40;5.53;;;;;;;;;;5003528;28;20109;-69
2022/05/19 06:46:55;;;;;;;8.13;5.10;;;;;;;;;;5004286;28;20089;-69
2022/05/19 06:49:21;;;;;;;6.95;4.60;;;;;;;;;;5002384;28;20784;-69
2022/05/19 06:51:46;;;;;;;5.68;4.40;;;;;;;;;;5002445;28;20034;-69
2022/05/19 06:54:12;;;;;;;9.02;4.40;;;;;;;;;;5005975;28;20030;-69
2022/05/19 06:56:37;;;;;;;6.93;4.57;;;;;;;;;;5003008;28;20072;-69
2022/05/19 06:59:03;;;;;;;6.10;4.63;;;;;;;;;;5001575;28;20029;-69
2022/05/19 07:01:29;;;;;;;12.32;5.47;;;;;;;;;;5005355;28;20038;-69
2022/05/19 07:03:55;;;;;;;10.23;5.60;;;;;;;;;;5006390;28;20045;-69
2022/05/19 07:06:20;;;;;;;8.00;4.60;;;;;;;;;;5006118;28;20045;-69
2022/05/19 07:08:47;;;;;;;7.22;5.03;;;;;;;;;;5016103;28;20123;-69
2022/05/19 07:11:24;;;;;;;9.60;5.57;;;;;;;;;;5005560;28;20026;-69
2022/05/19 07:14:02;;;;;;;8.70;5.07;;;;;;;;;;5004239;28;20137;-69
2022/05/19 07:16:28;;;;;;;6.35;4.50;;;;;;;;;;4996038;28;20042;-69
2022/05/19 07:21:42;;;;;;;8.95;4.95;;;;;;;;;;4994126;28;20048;-69
2022/05/19 07:24:19;;;;;;;10.75;5.00;;;;;;;;;;5004299;28;20113;-69
2022/05/19 07:26:48;;;;;;;6.05;4.75;;;;;;;;;;4996469;28;20088;-69
2022/05/19 07:29:14;;;;;;;7.57;4.75;;;;;;;;;;5006763;28;20128;-69
2022/05/19 07:31:40;;;;;;;5.70;4.57;;;;;;;;;;4994280;28;20497;-69
2022/05/19 07:34:06;;;;;;;7.78;5.00;;;;;;;;;;5005308;28;20052;-69
2022/05/19 07:36:32;;;;;;;8.10;5.45;;;;;;;;;;4994453;28;20038;-69
2022/05/19 07:38:59;;;;;;;10.57;5.63;;;;;;;;;;4996939;28;20046;-69
2022/05/19 07:41:26;;;;;;;7.18;5.20;;;;;;;;;;4999319;28;20116;-69
2022/05/19 07:43:52;;;;;;;7.82;5.18;;;;;;;;;;5006867;28;20587;-69
2022/05/19 07:46:18;;;;;;;10.95;5.68;;;;;;;;;;5009403;28;20133;-69
2022/05/19 07:48:44;;;;;;;10.13;5.63;;;;;;;;;;5005569;28;20038;-69
2022/05/19 07:51:09;;;;;;;7.75;5.80;;;;;;;;;;5008926;28;20440;-69
2022/05/19 07:53:34;;;;;;;8.18;5.85;;;;;;;;;;5008169;28;20028;-69
2022/05/19 07:56:00;;;;;;;10.10;6.90;;;;;;;;;;5009300;28;20097;-69
2022/05/19 07:58:25;;;;;;;6.93;5.80;;;;;;;;;;5009566;28;20053;-69
2022/05/19 08:00:52;;;;;;;8.95;5.78;;;;;;;;;;5008633;28;20049;-69
2022/05/19 08:03:20;;;;;;;7.80;6.30;;;;;;;;;;5006208;28;20045;-69
2022/05/19 08:05:46;;;;;;;7.43;5.22;;;;;;;;;;4998532;28;20034;-69
2022/05/19 08:08:11;;;;;;;8.57;5.68;;;;;;;;;;5009079;28;20041;-69
2022/05/19 08:10:37;;;;;;;8.57;5.43;;;;;;;;;;5006767;28;20058;-74
2022/05/19 08:15:47;;;;;;;7.55;5.47;;;;;;;;;;5006668;28;20036;-74
2022/05/19 08:18:15;;;;;;;8.35;5.85;;;;;;;;;;5007919;28;20495;-74
2022/05/19 08:20:44;;;;;;;9.10;5.90;;;;;;;;;;5000853;28;20069;-73
2022/05/19 08:23:16;;;;;;;9.85;6.13;;;;;;;;;;5003617;28;20050;-74
2022/05/19 08:25:43;;;;;;;8.37;6.07;;;;;;;;;;5000861;28;20042;-73
2022/05/19 08:28:09;;;;;;;10.07;6.50;;;;;;;;;;4997887;28;20579;-74
2022/05/19 08:30:36;;;;;;;8.10;5.85;;;;;;;;;;5000873;28;20069;-74
2022/05/19 08:33:05;;;;;;;9.35;5.60;;;;;;;;;;5003839;28;20510;-74
2022/05/19 08:35:30;;;;;;;7.40;5.60;;;;;;;;;;4998492;28;20026;-74
2022/05/19 08:37:55;;;;;;;8.77;5.80;;;;;;;;;;5005595;28;20065;-74
2022/05/19 08:40:22;;;;;;;13.27;6.22;;;;;;;;;;5008920;28;20076;-74
2022/05/19 08:42:57;;;;;;;7.60;6.22;;;;;;;;;;5004230;28;20034;-74
2022/05/19 08:45:29;;;;;;;12.05;6.18;;;;;;;;;;5003299;28;20690;-74
2022/05/19 08:48:06;;;;;;;10.90;5.60;;;;;;;;;;5006417;28;20037;-74
2022/05/19 08:50:39;;;;;;;10.07;5.75;;;;;;;;;;5004523;28;20577;-74
2022/05/19 08:53:06;;;;;;;10.52;6.20;;;;;;;;;;5005170;28;20079;-74
2022/05/19 08:55:32;;;;;;;8.23;5.68;;;;;;;;;;5007830;28;20121;-74
2022/05/19 08:58:12;;;;;;;8.05;5.97;;;;;;;;;;5008164;28;20187;-74
2022/05/19 09:00:43;;;;;;;7.18;5.40;;;;;;;;;;5004700;28;20435;-74
2022/05/19 09:03:18;;;;;;;7.18;5.47;;;;;;;;;;4995054;28;20037;-74
2022/05/19 09:06:08;;;;;;;8.82;5.60;;;;;;;;;;5004998;28;20033;-74
2022/05/19 09:08:45;;;;;;;8.95;5.80;;;;;;;;;;4997082;28;20503;-73
2022/05/19 09:11:19;;;;;;;10.10;5.55;;;;;;;;;;5006659;28;20500;-73
2022/05/19 09:14:10;;;;;;;9.07;6.35;;;;;;;;;;5003501;28;20087;-74
2022/05/19 09:16:42;;;;;;;7.53;6.05;;;;;;;;;;5005170;28;20054;-74
2022/05/19 09:19:17;;;;;;;11.18;5.82;;;;;;;;;;4995695;28;20632;-74
2022/05/19 09:21:45;;;;;;;8.60;5.88;;;;;;;;;;4988286;28;20042;-74
2022/05/19 09:24:11;;;;;;;8.88;6.85;;;;;;;;;;4988263;28;20026;-74
2022/05/19 09:26:49;;;;;;;9.20;6.35;;;;;;;;;;5003112;28;20025;-74
2022/05/19 09:29:29;;;;;;;8.45;5.93;;;;;;;;;;5005752;28;20064;-74
2022/05/19 09:32:12;;;;;;;7.82;6.30;;;;;;;;;;4989031;28;20099;-73
2022/05/19 09:34:37;;;;;;;;;;;;;;;;;;4992586;28;20080;-74
2022/05/19 09:37:03;;;;;;;9.63;5.43;;;;;;;;;;4988002;28;19953;-74
2022/05/19 09:39:35;;;;;;;10.07;5.72;;;;;;;;;;4987927;28;20046;-73
2022/05/19 09:42:12;;;;;;;8.43;5.78;;;;;;;;;;4989476;28;20087;-74
2022/05/19 09:44:50;;;;;;;6.88;5.32;;;;;;;;;;5007436;28;20065;-74
2022/05/19 09:47:31;;;;;;;9.07;5.30;;;;;;;;;;5007807;28;20057;-74
2022/05/19 09:50:27;;;;;;;9.20;6.55;;;;;;;;;;5004217;28;20051;-74
2022/05/19 09:53:05;;;;;;;8.70;5.93;;;;;;;;;;4997191;28;20050;-74
2022/05/19 09:55:31;;;;;;;7.22;6.18;;;;;;;;;;4997664;28;20057;-74
2022/05/19 09:57:59;;;;;;;8.50;6.25;;;;;;;;;;4999081;28;20462;-73
2022/05/19 10:00:26;;;;;;;15.75;6.03;;;;;;;;;;4998904;28;20046;-74
2022/05/19 10:02:56;;;;;;;12.02;7.32;;;;;;;;;;5020095;28;20042;-74
2022/05/19 10:05:31;;;;;;;31.55;6.65;;;;;;;;;;5007717;28;20113;-73
2022/05/19 10:08:05;;;;;;;12.90;6.00;;;;;;;;;;5007277;28;20049;-78
2022/05/19 10:10:33;;;;;;;9.25;2.70;;;;;;;;;;5007316;28;20037;-78
2022/05/19 10:13:08;;;;;;;6.00;2.40;;;;;;;;;;5001382;28;20038;-74
2022/05/19 10:15:59;;;;;;;4.85;2.40;;;;;;;;;;5003737;28;20663;-74
2022/05/19 10:18:55;;;;;;;4.20;2.30;;;;;;;;;;5008381;28;20117;-75
2022/05/19 10:21:51;;;;;;;5.90;2.67;;;;;;;;;;5006021;28;20081;-74
2022/05/19 10:24:30;;;;;;;5.13;2.67;;;;;;;;;;4985104;28;20046;-75
2022/05/19 10:33:25;;;;;;;13.45;5.25;;;;;;;;;;5005649;28;20143;-75
2022/05/19 10:36:16;;;;;;;11.68;5.53;;;;;;;;;;5006165;28;20466;-75
2022/05/19 10:38:59;;;;;;;13.80;8.82;;;;;;;;;;5005887;28;20033;-75
2022/05/19 10:42:02;;;;;;;40.10;10.88;;;;;;;;;;5004647;28;20022;-74
2022/05/19 10:44:41;;;;;;;21.98;10.65;;;;;;;;;;4996581;28;20038;-73
2022/05/19 10:47:14;;;;;;;15.43;9.43;;;;;;;;;;5006173;28;20085;-73
2022/05/19 10:50:27;;;;;;;21.60;12.15;;;;;;;;;;5000374;28;20041;-73
2022/05/19 10:53:01;;;;;;;22.30;14.50;;;;;;;;;;5000229;28;20045;-73
2022/05/19 10:55:49;;;;;;;26.65;11.73;;;;;;;;;;5005665;28;20099;-73
2022/05/19 10:58:23;;;;;;;18.75;12.82;;;;;;;;;;5005391;28;20393;-73
2022/05/19 11:00:57;;;;;;;11.30;9.15;;;;;;;;;;5000552;28;20050;-73
2022/05/19 11:03:23;;;;;;;14.88;8.00;;;;;;;;;;5005429;28;20042;-74
2022/05/19 11:06:03;;;;;;;11.40;7.15;;;;;;;;;;5009183;28;20123;-74
2022/05/19 11:08:44;;;;;;;8.88;6.50;;;;;;;;;;5008183;28;20033;-74
2022/05/19 11:11:18;;;;;;;9.18;6.78;;;;;;;;;;5010173;28;20115;-74
2022/05/19 11:14:01;;;;;;;6.72;5.53;;;;;;;;;;5009265;28;20042;-73
2022/05/19 11:16:31;;;;;;;;;;;;;;;;;;4994222;28;20080;-73
2022/05/19 11:19:18;;;;;;;7.30;5.28;;;;;;;;;;4999626;28;20444;-73
2022/05/19 11:22:05;;;;;;;7.63;4.45;;;;;;;;;;5005483;28;20524;-73
2022/05/19 11:26:23;;;;;;;6.38;4.85;;;;;;;;;;5008919;28;20048;-73
2022/05/19 11:27:25;;;;;;;11.02;6.40;;;;;;;;;;5001550;28;20092;-73
2022/05/19 11:29:57;;;;;;;16.40;7.43;;;;;;;;;;4998630;28;20444;-73
2022/05/19 11:32:32;;;;;;;12.02;7.40;;;;;;;;;;5006821;28;20858;-73
2022/05/19 11:35:00;;;;;;;14.90;7.28;;;;;;;;;;5003416;28;20120;-73
2022/05/19 11:37:31;;;;;;;9.18;6.13;;;;;;;;;;5006044;28;20424;-73
2022/05/19 11:40:15;;;;;;;13.13;7.15;;;;;;;;;;4989251;28;20886;-73
2022/05/19 11:42:50;;;;;;;7.63;5.90;;;;;;;;;;4989079;28;20125;-73
2022/05/19 11:45:28;;;;;;;10.30;6.43;;;;;;;;;;4998564;28;20038;-73
2022/05/19 11:57:19;;;;;;;6.25;4.57;;;;;;;;;;4997677;28;20056;-73
2022/05/19 11:59:50;;;;;;;6.95;4.80;;;;;;;;;;5008524;28;20034;-73
2022/05/19 12:02:19;;;;;;;6.32;4.78;;;;;;;;;;5009063;28;20028;-73
2022/05/19 12:04:47;;;;;;;4.72;4.25;;;;;;;;;;5006936;28;20049;-73
2022/05/19 12:07:32;;;;;;;6.07;3.72;;;;;;;;;;4993198;28;20038;-73
2022/05/19 12:09:59;;;;;;;6.40;3.75;;;;;;;;;;4999025;28;20042;-73
2022/05/19 12:12:30;;;;;;;4.97;3.30;;;;;;;;;;5008786;28;20037;-73
2022/05/19 12:15:14;;;;;;;4.72;3.53;;;;;;;;;;5023309;28;20060;-73
2022/05/19 12:17:43;;;;;;;5.20;3.60;;;;;;;;;;5007217;28;20080;-73
2022/05/19 12:20:36;;;;;;;5.05;3.25;;;;;;;;;;5008037;28;20385;-73
2022/05/19 12:23:13;;;;;;;3.58;3.15;;;;;;;;;;5003998;28;20732;-73
2022/05/19 12:25:42;;;;;;;4.45;3.03;;;;;;;;;;4998549;28;20124;-73
2022/05/19 12:28:57;;;;;;;4.15;3.50;;;;;;;;;;5003234;28;20093;-73
2022/05/19 12:34:13;;;;;;;4.22;2.92;;;;;;;;;;5007859;28;20486;-74
2022/05/19 12:36:47;;;;;;;3.13;2.67;;;;;;;;;;5002265;28;20031;-74
2022/05/19 12:39:18;;;;;;;5.60;2.90;;;;;;;;;;4988225;28;20030;-74
2022/05/19 12:41:49;;;;;;;3.83;2.97;;;;;;;;;;4997323;28;20482;-74
2022/05/19 12:44:38;;;;;;;4.75;3.38;;;;;;;;;;5008018;28;20121;-74
2022/05/19 12:47:16;;;;;;;2.53;2.17;;;;;;;;;;5004532;28;20038;-74
2022/05/19 12:50:02;;;;;;;3.25;2.63;;;;;;;;;;5001553;28;20048;-74
2022/05/19 12:52:54;;;;;;;4.63;2.20;;;;;;;;;;5012155;28;20065;-75
2022/05/19 12:55:22;;;;;;;2.10;1.83;;;;;;;;;;5020142;28;20034;-74
2022/05/19 12:57:48;;;;;;;5.00;2.55;;;;;;;;;;4993037;28;20184;-75
2022/05/19 13:00:19;;;;;;;1.77;1.67;;;;;;;;;;5003000;28;20031;-74
2022/05/19 13:03:11;;;;;;;2.88;2.60;;;;;;;;;;4996371;28;20084;-74
2022/05/19 13:05:45;;;;;;;2.50;1.95;;;;;;;;;;5006334;28;20030;-74
2022/05/19 13:08:26;;;;;;;2.88;2.10;;;;;;;;;;5006047;28;20034;-75
2022/05/19 13:10:51;;;;;;;2.65;2.00;;;;;;;;;;4998469;28;20045;-75
2022/05/19 13:13:31;;;;;;;3.50;2.03;;;;;;;;;;5007702;28;20034;-75
2022/05/19 13:16:11;;;;;;;8.25;2.60;;;;;;;;;;5010345;28;20037;-75
2022/05/19 13:18:42;;;;;;;4.55;3.15;;;;;;;;;;4996359;28;20033;-75
2022/05/19 13:21:20;;;;;;;3.35;2.50;;;;;;;;;;5006229;28;20044;-75
2022/05/19 13:23:46;;;;;;;5.22;2.80;;;;;;;;;;5007087;28;20037;-75
2022/05/19 13:26:17;;;;;;;4.55;2.53;;;;;;;;;;4997228;28;20034;-75
2022/05/19 13:32:00;;;;;;;4.72;2.22;;;;;;;;;;4987129;28;20114;-76
2022/05/19 13:34:26;;;;;;;4.43;2.30;;;;;;;;;;4987653;28;20038;-75
2022/05/19 13:36:55;;;;;;;5.30;2.42;;;;;;;;;;4988562;28;20157;-76
2022/05/19 13:39:21;;;;;;;3.90;2.22;;;;;;;;;;5004012;28;20034;-76
2022/05/19 13:41:53;;;;;;;4.07;2.40;;;;;;;;;;4992553;28;20504;-76
2022/05/19 13:44:39;;;;;;;3.00;2.35;;;;;;;;;;4988268;28;20729;-76
2022/05/19 13:47:12;;;;;;;3.50;2.25;;;;;;;;;;4987657;28;20035;-76
2022/05/19 13:49:38;;;;;;;4.10;2.30;;;;;;;;;;4995161;28;20056;-76
2022/05/19 13:52:08;;;;;;;3.72;3.13;;;;;;;;;;5006612;28;20603;-76
2022/05/19 13:54:41;;;;;;;4.22;3.00;;;;;;;;;;4991669;28;20038;-76
2022/05/19 13:57:12;;;;;;;3.47;2.90;;;;;;;;;;4991432;28;20117;-76
2022/05/19 13:59:38;;;;;;;4.00;3.20;;;;;;;;;;5006544;28;20510;-76
2022/05/19 14:02:22;;;;;;;3.90;2.90;;;;;;;;;;5005891;28;20038;-76
2022/05/19 14:04:48;;;;;;;3.03;2.72;;;;;;;;;;4992725;28;20053;-76
2022/05/19 14:07:17;;;;;;;3.30;2.58;;;;;;;;;;5002634;28;20049;-76
2022/05/19 14:09:48;;;;;;;4.88;2.90;;;;;;;;;;5006096;28;20184;-77
2022/05/19 14:12:13;;;;;;;4.13;3.03;;;;;;;;;;4989249;28;20066;-76
2022/05/19 14:14:45;;;;;;;4.07;2.57;;;;;;;;;;5005908;28;20112;-76
2022/05/19 14:17:10;;;;;;;4.65;2.50;;;;;;;;;;5005154;28;20277;-77
2022/05/19 14:19:37;;;;;;;3.47;3.17;;;;;;;;;;5006212;28;20045;-76
2022/05/19 14:22:04;;;;;;;4.43;3.05;;;;;;;;;;5002629;28;20088;-77
2022/05/19 14:24:29;;;;;;;3.10;2.80;;;;;;;;;;4985252;28;20034;-77
2022/05/19 14:26:56;;;;;;;5.47;3.30;;;;;;;;;;4993965;28;20625;-77
2022/05/19 14:29:28;;;;;;;4.95;3.35;;;;;;;;;;5004861;28;20561;-77
2022/05/19 14:32:02;;;;;;;4.53;2.90;;;;;;;;;;4986325;28;20045;-77
2022/05/19 14:34:41;;;;;;;4.88;2.97;;;;;;;;;;4999296;28;20033;-78
2022/05/19 14:37:20;;;;;;;3.78;2.67;;;;;;;;;;5004738;28;20049;-78
2022/05/19 14:43:03;;;;;;;4.00;2.85;;;;;;;;;;5004946;28;20052;-77
2022/05/19 14:45:25;;;;;;;6.07;2.88;;;;;;;;;;4995270;28;20092;-78
2022/05/19 14:47:52;;;;;;;6.43;3.20;;;;;;;;;;5001274;28;20042;-77
2022/05/19 14:50:23;;;;;;;2.95;2.60;;;;;;;;;;5021557;28;20018;-78
2022/05/19 14:52:51;;;;;;;14.48;11.15;;;;;;;;;;4990778;28;20036;-77
2022/05/19 14:55:24;;;;;;;4.03;2.88;;;;;;;;;;4999846;28;20045;-77
2022/05/19 14:57:53;;;;;;;5.20;2.97;;;;;;;;;;5003833;28;20033;-77
2022/05/19 15:00:21;;;;;;;4.18;2.70;;;;;;;;;;4985573;28;20140;-77
2022/05/19 15:02:47;;;;;;;4.25;2.53;;;;;;;;;;4993183;28;20034;-77
2022/05/19 15:05:14;;;;;;;3.28;2.60;;;;;;;;;;5006301;28;20030;-77
2022/05/19 15:07:50;;;;;;;5.05;2.70;;;;;;;;;;5020564;28;20022;-77
2022/05/19 15:10:18;;;;;;;5.30;2.70;;;;;;;;;;5006141;28;20111;-78
2022/05/19 15:12:44;;;;;;;4.80;3.50;;;;;;;;;;4986289;28;20720;-77
2022/05/19 15:15:11;;;;;;;4.28;2.75;;;;;;;;;;4996552;28;20050;-77
2022/05/19 15:17:37;;;;;;;4.20;3.20;;;;;;;;;;4993731;28;20022;-77
2022/05/19 15:20:03;;;;;;;3.97;3.25;;;;;;;;;;5006169;28;20524;-78
2022/05/19 15:22:29;;;;;;;5.85;3.10;;;;;;;;;;5004661;28;20803;-78
2022/05/19 15:24:55;;;;;;;4.25;3.40;;;;;;;;;;4999653;28;20046;-77
2022/05/19 15:27:32;;;;;;;5.30;3.92;;;;;;;;;;4997114;28;20069;-78
2022/05/19 15:29:57;;;;;;;5.65;4.10;;;;;;;;;;4997114;28;20049;-77